createdAt,value
2019-03-18T00:00:26.957Z,6.1
2019-03-18T00:01:16.981Z,6.1
2019-03-18T00:02:07.084Z,6
2019-03-18T00:02:56.914Z,6
2019-03-18T00:03:47.184Z,6
2019-03-18T00:04:37.221Z,5.9
2019-03-18T00:05:27.084Z,5.9
2019-03-18T00:06:17.067Z,5.9
2019-03-18T00:07:07.401Z,5.9
2019-03-18T00:07:57.204Z,5.9
2019-03-18T00:08:47.258Z,5.7
2019-03-18T00:09:37.039Z,5.4
2019-03-18T00:10:26.901Z,5.3
2019-03-18T00:11:17.426Z,5.2
2019-03-18T00:12:07.549Z,5.3
2019-03-18T00:12:57.553Z,5.3
2019-03-18T00:13:47.621Z,5.4
2019-03-18T00:14:37.951Z,5.4
2019-03-18T00:15:28.143Z,5.4
2019-03-18T00:16:17.529Z,5.4
2019-03-18T00:17:07.871Z,5.5
2019-03-18T00:17:57.679Z,5.4
2019-03-18T00:18:47.991Z,5.4
2019-03-18T00:19:37.760Z,5.6
2019-03-18T00:20:27.534Z,5.7
2019-03-18T00:21:17.888Z,5.6
2019-03-18T00:22:08.215Z,5.4
2019-03-18T00:22:58.289Z,5.3
2019-03-18T00:23:48.343Z,5.2
2019-03-18T00:24:38.392Z,5.1
2019-03-18T00:25:28.740Z,5.1
2019-03-18T00:26:18.254Z,5.1
2019-03-18T00:27:08.010Z,5
2019-03-18T00:27:58.912Z,5
2019-03-18T00:28:48.985Z,4.9
2019-03-18T00:29:39.103Z,5
2019-03-18T00:30:29.096Z,5
2019-03-18T00:31:18.308Z,5.1
2019-03-18T00:32:09.230Z,5.1
2019-03-18T00:32:59.083Z,5.1
2019-03-18T00:33:48.792Z,5.2
2019-03-18T00:34:39.385Z,5.3
2019-03-18T00:35:29.448Z,5.3
2019-03-18T00:36:18.984Z,5.5
2019-03-18T00:37:09.388Z,5.6
2019-03-18T00:37:59.665Z,5.8
2019-03-18T00:38:49.440Z,5.9
2019-03-18T00:39:39.563Z,5.9
2019-03-18T00:40:29.833Z,6
2019-03-18T00:41:19.340Z,6
2019-03-18T00:42:09.660Z,5.9
2019-03-18T00:42:59.487Z,5.9
2019-03-18T00:43:50.087Z,5.8
2019-03-18T00:44:39.853Z,5.8
2019-03-18T00:45:30.188Z,5.8
2019-03-18T00:46:19.984Z,5.9
2019-03-18T00:47:10.067Z,5.9
2019-03-18T00:47:59.865Z,5.8
2019-03-18T00:48:50.146Z,5.6
2019-03-18T00:49:40.479Z,5.5
2019-03-18T00:50:30.284Z,5.5
2019-03-18T00:51:20.324Z,5.7
2019-03-18T00:52:10.381Z,5.8
2019-03-18T00:53:00.162Z,5.9
2019-03-18T00:53:50.786Z,6
2019-03-18T00:54:40.331Z,6.1
2019-03-18T00:55:30.645Z,6
2019-03-18T00:56:21.036Z,5.9
2019-03-18T00:57:10.473Z,5.8
2019-03-18T00:58:00.809Z,5.7
2019-03-18T00:58:51.144Z,5.7
2019-03-18T00:59:40.096Z,5.7
2019-03-18T01:00:31.089Z,5.7
2019-03-18T01:01:20.768Z,5.6
2019-03-18T01:02:11.388Z,5.5
2019-03-18T01:03:00.895Z,5.5
2019-03-18T01:03:51.505Z,5.6
2019-03-18T01:04:41.566Z,5.6
2019-03-18T01:05:31.623Z,5.2
2019-03-18T01:06:20.906Z,4.9
2019-03-18T01:07:11.201Z,4.9
2019-03-18T01:08:01.856Z,4.9
2019-03-18T01:08:51.330Z,5.1
2019-03-18T01:09:41.654Z,4.9
2019-03-18T01:10:32.003Z,4.9
2019-03-18T01:11:21.767Z,4.9
2019-03-18T01:12:12.101Z,4.9
2019-03-18T01:13:01.613Z,4.9
2019-03-18T01:13:51.955Z,5
2019-03-18T01:14:42.005Z,5.1
2019-03-18T01:15:32.402Z,5.1
2019-03-18T01:16:22.117Z,5.1
2019-03-18T01:17:12.480Z,5.1
2019-03-18T01:18:02.337Z,5.3
2019-03-18T01:18:52.035Z,5.6
2019-03-18T01:19:42.372Z,5.4
2019-03-18T01:20:32.463Z,5.3
2019-03-18T01:21:22.825Z,5.3
2019-03-18T01:22:12.562Z,5.3
2019-03-18T01:23:02.070Z,5.4
2019-03-18T01:23:53.043Z,5.4
2019-03-18T01:24:42.740Z,5.4
2019-03-18T01:25:32.802Z,5.4
2019-03-18T01:26:22.872Z,5.4
2019-03-18T01:27:12.637Z,5.5
2019-03-18T01:28:03.259Z,5.4
2019-03-18T01:28:52.762Z,5.4
2019-03-18T01:29:43.100Z,5.3
2019-03-18T01:30:33.439Z,5.3
2019-03-18T01:31:23.530Z,5
2019-03-18T01:32:13.279Z,4.7
2019-03-18T01:33:03.070Z,4.6
2019-03-18T01:33:53.112Z,4.6
2019-03-18T01:34:43.729Z,4.6
2019-03-18T01:35:33.566Z,4.6
2019-03-18T01:36:23.024Z,4.5
2019-03-18T01:37:13.353Z,4.6
2019-03-18T01:38:03.987Z,4.6
2019-03-18T01:38:53.757Z,4.7
2019-03-18T01:39:43.539Z,4.8
2019-03-18T01:40:34.172Z,4.8
2019-03-18T01:41:24.061Z,4.8
2019-03-18T01:42:17.147Z,4.8
2019-03-18T01:43:04.336Z,4.8
2019-03-18T01:43:54.142Z,4.8
2019-03-18T01:44:44.181Z,4.8
2019-03-18T01:45:43.262Z,4.8
2019-03-18T01:46:24.034Z,4.7
2019-03-18T01:47:14.381Z,4.7
2019-03-18T01:48:04.431Z,4.7
2019-03-18T01:48:54.764Z,4.8
2019-03-18T01:49:44.263Z,4.8
2019-03-18T01:50:34.881Z,5
2019-03-18T01:51:24.113Z,5.1
2019-03-18T01:52:14.720Z,5.2
2019-03-18T01:53:04.795Z,5.1
2019-03-18T01:53:55.118Z,5
2019-03-18T01:54:45.186Z,5
2019-03-18T01:55:34.965Z,4.9
2019-03-18T01:56:25.084Z,4.9
2019-03-18T01:57:15.103Z,4.8
2019-03-18T01:58:05.150Z,4.8
2019-03-18T01:58:54.935Z,4.9
2019-03-18T01:59:45.248Z,4.8
2019-03-18T02:00:35.325Z,4.6
2019-03-18T02:01:25.677Z,4.6
2019-03-18T02:02:15.732Z,4.5
2019-03-18T02:03:05.880Z,4.5
2019-03-18T02:03:55.570Z,4.5
2019-03-18T02:04:45.905Z,4.4
2019-03-18T02:05:35.705Z,4.3
2019-03-18T02:06:25.763Z,4.3
2019-03-18T02:07:15.558Z,4.4
2019-03-18T02:08:05.862Z,4.5
2019-03-18T02:08:55.650Z,4.6
2019-03-18T02:09:45.712Z,4.6
2019-03-18T02:10:36.322Z,4.6
2019-03-18T02:11:26.100Z,4.6
2019-03-18T02:12:16.174Z,4.6
2019-03-18T02:13:06.229Z,4.5
2019-03-18T02:13:55.765Z,4.4
2019-03-18T02:14:46.357Z,4.4
2019-03-18T02:15:36.129Z,4.4
2019-03-18T02:16:26.463Z,4.4
2019-03-18T02:17:16.925Z,4.4
2019-03-18T02:18:06.612Z,4.3
2019-03-18T02:18:56.668Z,4.3
2019-03-18T02:19:46.989Z,4.2
2019-03-18T02:20:37.047Z,4.2
2019-03-18T02:21:26.826Z,4.2
2019-03-18T02:22:17.179Z,4.2
2019-03-18T02:23:06.674Z,4.3
2019-03-18T02:23:57.046Z,4.3
2019-03-18T02:24:47.347Z,4.3
2019-03-18T02:25:37.124Z,4.3
2019-03-18T02:26:26.923Z,4.4
2019-03-18T02:27:17.261Z,4.6
2019-03-18T02:28:07.589Z,4.6
2019-03-18T02:28:57.472Z,4.8
2019-03-18T02:29:47.716Z,4.7
2019-03-18T02:30:37.814Z,4.6
2019-03-18T02:31:27.314Z,4.5
2019-03-18T02:32:17.630Z,4.5
2019-03-18T02:33:07.716Z,4.5
2019-03-18T02:33:57.805Z,4.4
2019-03-18T02:34:47.572Z,4.5
2019-03-18T02:35:37.917Z,4.6
2019-03-18T02:36:28.225Z,4.6
2019-03-18T02:37:18.007Z,4.6
2019-03-18T02:38:08.097Z,4.7
2019-03-18T02:38:58.162Z,4.7
2019-03-18T02:39:48.199Z,4.8
2019-03-18T02:40:38.264Z,4.8
2019-03-18T02:41:28.311Z,4.8
2019-03-18T02:42:18.386Z,4.8
2019-03-18T02:43:08.167Z,4.8
2019-03-18T02:43:58.485Z,4.8
2019-03-18T02:44:48.824Z,4.8
2019-03-18T02:45:38.613Z,4.8
2019-03-18T02:46:28.539Z,4.6
2019-03-18T02:47:19.005Z,4.4
2019-03-18T02:48:08.785Z,4.4
2019-03-18T02:48:58.920Z,4.4
2019-03-18T02:49:48.637Z,4.3
2019-03-18T02:50:38.790Z,4.5
2019-03-18T02:51:29.324Z,4.6
2019-03-18T02:52:19.403Z,4.5
2019-03-18T02:53:09.436Z,4.4
2019-03-18T02:53:59.533Z,4.4
2019-03-18T02:54:49.553Z,4.3
2019-03-18T02:55:39.341Z,4.3
2019-03-18T02:56:29.418Z,4.3
2019-03-18T02:57:19.172Z,4.3
2019-03-18T02:58:09.237Z,4.3
2019-03-18T02:58:59.565Z,4.3
2019-03-18T02:59:49.681Z,4.4
2019-03-18T03:00:39.752Z,4.6
2019-03-18T03:01:29.465Z,4.8
2019-03-18T03:02:20.090Z,4.8
2019-03-18T03:03:09.659Z,4.8
2019-03-18T03:04:00.016Z,4.8
2019-03-18T03:07:30.861Z,4.7
2019-03-18T03:08:20.875Z,4.8
2019-03-18T03:09:11.114Z,4.8
2019-03-18T03:10:00.919Z,4.9
2019-03-18T03:10:51.009Z,4.8
2019-03-18T03:11:41.326Z,4.8
2019-03-18T03:12:31.456Z,4.8
2019-03-18T03:13:21.448Z,4.8
2019-03-18T03:14:11.244Z,4.9
2019-03-18T03:15:01.646Z,4.9
2019-03-18T03:15:51.666Z,4.9
2019-03-18T03:16:41.117Z,4.8
2019-03-18T03:17:31.755Z,4.9
2019-03-18T03:18:21.540Z,4.9
2019-03-18T03:19:11.669Z,4.9
2019-03-18T03:20:02.026Z,4.9
2019-03-18T03:20:51.983Z,4.9
2019-03-18T03:21:42.016Z,4.9
2019-03-18T03:22:32.100Z,4.8
2019-03-18T03:23:21.913Z,4.7
2019-03-18T03:24:12.198Z,4.6
2019-03-18T03:25:02.142Z,4.6
2019-03-18T03:25:52.299Z,4.7
2019-03-18T03:26:42.269Z,4.9
2019-03-18T03:27:32.519Z,4.9
2019-03-18T03:28:22.238Z,4.8
2019-03-18T03:29:12.125Z,4.4
2019-03-18T03:30:03.011Z,4.3
2019-03-18T03:30:52.837Z,4.1
2019-03-18T03:31:42.273Z,3.9
2019-03-18T03:32:32.611Z,3.8
2019-03-18T03:33:22.856Z,3.8
2019-03-18T03:34:16.766Z,3.7
2019-03-18T03:35:04.310Z,3.4
2019-03-18T03:35:52.507Z,3.3
2019-03-18T03:36:42.570Z,3.2
2019-03-18T03:37:32.877Z,3.2
2019-03-18T03:38:23.232Z,3.2
2019-03-18T03:39:12.735Z,3.2
2019-03-18T03:40:03.532Z,3.2
2019-03-18T03:40:53.432Z,3.3
2019-03-18T03:41:43.297Z,3.3
2019-03-18T03:42:33.003Z,3.3
2019-03-18T03:43:23.572Z,3.3
2019-03-18T03:44:13.710Z,3.2
2019-03-18T03:45:03.728Z,3.1
2019-03-18T03:45:53.790Z,3.1
2019-03-18T03:46:46.427Z,3.1
2019-03-18T03:47:34.024Z,3.2
2019-03-18T03:48:23.716Z,3.1
2019-03-18T03:49:13.804Z,3.1
2019-03-18T03:50:04.119Z,3.1
2019-03-18T03:50:53.594Z,3.1
2019-03-18T03:51:43.930Z,3.1
2019-03-18T03:52:33.988Z,3.2
2019-03-18T03:53:23.758Z,3.2
2019-03-18T03:54:14.175Z,3.1
2019-03-18T03:55:04.569Z,3
2019-03-18T03:55:54.501Z,3.1
2019-03-18T03:56:44.596Z,3.2
2019-03-18T03:57:34.333Z,3.2
2019-03-18T03:58:24.421Z,3.2
2019-03-18T03:59:14.771Z,3.4
2019-03-18T04:00:04.899Z,3.4
2019-03-18T04:00:54.599Z,3.5
2019-03-18T04:01:44.387Z,3.6
2019-03-18T04:02:34.983Z,3.6
2019-03-18T04:03:41.478Z,3.6
2019-03-18T04:04:15.191Z,3.6
2019-03-18T04:05:04.673Z,3.6
2019-03-18T04:05:55.094Z,3.6
2019-03-18T04:06:45.029Z,3.6
2019-03-18T04:07:35.336Z,3.6
2019-03-18T04:08:24.997Z,3.6
2019-03-18T04:09:14.621Z,3.3
2019-03-18T04:10:05.250Z,3.2
2019-03-18T04:10:55.303Z,3.2
2019-03-18T04:11:45.346Z,3.1
2019-03-18T04:12:35.681Z,3.2
2019-03-18T04:13:25.498Z,3.1
2019-03-18T04:14:15.808Z,3.1
2019-03-18T04:15:05.081Z,3
2019-03-18T04:15:55.940Z,3
2019-03-18T04:17:05.085Z,3
2019-03-18T04:17:36.045Z,2.8
2019-03-18T04:18:25.843Z,2.8
2019-03-18T04:19:16.180Z,2.7
2019-03-18T04:20:05.723Z,2.7
2019-03-18T04:20:56.131Z,2.7
2019-03-18T04:21:46.071Z,2.7
2019-03-18T04:22:36.151Z,2.7
2019-03-18T04:23:26.528Z,2.6
2019-03-18T04:24:15.719Z,2.6
2019-03-18T04:25:21.103Z,2.6
2019-03-18T04:25:56.690Z,2.6
2019-03-18T04:26:46.454Z,2.6
2019-03-18T04:27:36.765Z,2.6
2019-03-18T04:28:26.602Z,2.4
2019-03-18T04:29:16.942Z,2.4
2019-03-18T04:30:06.973Z,2.4
2019-03-18T04:30:57.011Z,2.3
2019-03-18T04:31:47.122Z,2.3
2019-03-18T04:32:36.850Z,2.3
2019-03-18T04:33:27.183Z,2.2
2019-03-18T04:34:16.962Z,2.1
2019-03-18T04:35:07.033Z,2.1
2019-03-18T04:35:57.452Z,2
2019-03-18T04:36:47.457Z,2
2019-03-18T04:37:37.515Z,2
2019-03-18T04:38:27.550Z,2
2019-03-18T04:39:17.433Z,2
2019-03-18T04:40:07.675Z,2
2019-03-18T04:40:57.439Z,2
2019-03-18T04:41:47.505Z,1.9
2019-03-18T04:42:37.826Z,1.9
2019-03-18T04:43:27.619Z,1.8
2019-03-18T04:44:17.678Z,1.8
2019-03-18T04:45:07.731Z,1.9
2019-03-18T04:45:57.788Z,1.9
2019-03-18T04:46:47.846Z,1.9
2019-03-18T04:47:38.200Z,1.9
2019-03-18T04:48:27.972Z,1.9
2019-03-18T04:49:18.336Z,2
2019-03-18T04:50:07.295Z,2.1
2019-03-18T04:50:58.446Z,2.1
2019-03-18T04:51:48.271Z,2.1
2019-03-18T04:52:37.750Z,2.2
2019-03-18T04:53:28.063Z,2.2
2019-03-18T04:54:18.155Z,2.3
2019-03-18T04:55:08.748Z,2.3
2019-03-18T04:55:58.793Z,2.3
2019-03-18T04:56:48.630Z,2.4
2019-03-18T04:57:38.683Z,2.4
2019-03-18T04:58:28.979Z,2.3
2019-03-18T04:59:18.851Z,2.2
2019-03-18T05:00:09.119Z,2.2
2019-03-18T05:00:58.675Z,2.3
2019-03-18T05:01:48.667Z,2.3
2019-03-18T05:02:38.718Z,2.3
2019-03-18T05:03:29.361Z,2.3
2019-03-18T05:04:18.573Z,2.3
2019-03-18T05:05:09.463Z,2.3
2019-03-18T05:05:59.222Z,2.3
2019-03-18T05:06:49.290Z,2.3
2019-03-18T05:07:39.077Z,2.4
2019-03-18T05:08:29.145Z,2.6
2019-03-18T05:09:19.743Z,2.8
2019-03-18T05:10:09.813Z,2.8
2019-03-18T05:10:59.045Z,2.8
2019-03-18T05:11:49.645Z,2.7
2019-03-18T05:12:40.010Z,2.6
2019-03-18T05:13:29.805Z,2.7
2019-03-18T05:14:19.569Z,2.8
2019-03-18T05:15:10.179Z,2.9
2019-03-18T05:16:00.028Z,2.9
2019-03-18T05:16:49.732Z,2.9
2019-03-18T05:17:40.359Z,3.1
2019-03-18T05:18:29.849Z,3.3
2019-03-18T05:19:20.255Z,3.3
2019-03-18T05:20:10.021Z,3.3
2019-03-18T05:21:00.318Z,3.4
2019-03-18T05:21:50.098Z,3.5
2019-03-18T05:22:40.738Z,3.5
2019-03-18T05:23:30.211Z,3.4
2019-03-18T05:24:20.829Z,3.3
2019-03-18T05:25:10.897Z,3.4
2019-03-18T05:26:00.934Z,3.6
2019-03-18T05:26:51.019Z,3.6
2019-03-18T05:27:40.531Z,3.6
2019-03-18T05:28:31.121Z,3.6
2019-03-18T05:29:20.927Z,3.6
2019-03-18T05:30:10.963Z,3.7
2019-03-18T05:31:01.318Z,3.9
2019-03-18T05:31:51.396Z,3.9
2019-03-18T05:32:41.448Z,4
2019-03-18T05:33:31.224Z,4.1
2019-03-18T05:34:21.559Z,4.2
2019-03-18T05:35:11.629Z,4.3
2019-03-18T05:36:01.434Z,4.3
2019-03-18T05:36:51.783Z,4.2
2019-03-18T05:37:41.539Z,4.4
2019-03-18T05:38:31.578Z,4.6
2019-03-18T05:39:21.087Z,4.8
2019-03-18T05:40:11.741Z,4.8
2019-03-18T05:41:02.028Z,4.7
2019-03-18T05:41:51.833Z,4.8
2019-03-18T05:42:41.938Z,4.9
2019-03-18T05:43:32.202Z,4.9
2019-03-18T05:44:22.020Z,4.9
2019-03-18T05:45:12.390Z,4.9
2019-03-18T05:46:02.388Z,5.1
2019-03-18T05:46:51.917Z,4.9
2019-03-18T05:47:42.988Z,4.9
2019-03-18T05:48:32.362Z,5.1
2019-03-18T05:49:22.079Z,5.1
2019-03-18T05:50:12.281Z,5.4
2019-03-18T05:51:02.211Z,5.4
2019-03-18T05:51:52.821Z,5.4
2019-03-18T05:52:42.881Z,5.4
2019-03-18T05:53:32.651Z,5.4
2019-03-18T05:54:22.989Z,5.3
2019-03-18T05:55:12.261Z,5.3
2019-03-18T05:56:02.387Z,5.3
2019-03-18T05:56:53.255Z,5.4
2019-03-18T05:57:43.243Z,5.4
2019-03-18T05:58:32.746Z,5.5
2019-03-18T05:59:23.162Z,5.6
2019-03-18T06:00:13.148Z,5.7
2019-03-18T06:01:03.030Z,5.8
2019-03-18T06:01:52.997Z,5.8
2019-03-18T06:02:46.622Z,6.1
2019-03-18T06:03:33.095Z,6.4
2019-03-18T06:05:30.856Z,6.8
2019-03-18T06:06:20.642Z,6.9
2019-03-18T06:07:10.718Z,6.8
2019-03-18T06:08:00.565Z,6.8
2019-03-18T06:08:50.835Z,6.8
2019-03-18T06:09:40.609Z,6.9
2019-03-18T06:10:30.954Z,6.9
2019-03-18T06:11:21.022Z,7.2
2019-03-18T06:12:11.340Z,7.2
2019-03-18T06:13:01.394Z,7.2
2019-03-18T06:13:51.172Z,7.1
2019-03-18T06:14:41.302Z,7.2
2019-03-18T06:15:31.566Z,7.3
2019-03-18T06:16:21.630Z,7.4
2019-03-18T06:17:11.700Z,7.6
2019-03-18T06:18:01.575Z,7.7
2019-03-18T06:18:51.534Z,7.7
2019-03-18T06:19:41.315Z,7.6
2019-03-18T06:20:31.941Z,7.8
2019-03-18T06:21:21.437Z,7.9
2019-03-18T06:22:11.507Z,8
2019-03-18T06:23:01.847Z,8.1
2019-03-18T06:23:51.906Z,8.1
2019-03-18T06:24:42.237Z,8.6
2019-03-18T06:25:32.047Z,8.9
2019-03-18T06:26:22.084Z,8.6
2019-03-18T06:27:11.660Z,8.7
2019-03-18T06:28:02.469Z,8.7
2019-03-18T06:28:52.544Z,9
2019-03-18T06:29:42.352Z,9.1
2019-03-18T06:30:32.096Z,8.9
2019-03-18T06:31:22.439Z,8.8
2019-03-18T06:32:12.528Z,8.8
2019-03-18T06:33:02.306Z,8.8
2019-03-18T06:33:52.902Z,8.7
2019-03-18T06:34:42.674Z,8.8
2019-03-18T06:35:32.756Z,9
2019-03-18T06:36:22.881Z,9
2019-03-18T06:37:12.862Z,9.1
2019-03-18T06:38:02.644Z,9.1
2019-03-18T06:38:52.979Z,9.3
2019-03-18T06:39:43.308Z,9.6
2019-03-18T06:40:33.086Z,9.4
2019-03-18T06:41:23.433Z,9.5
2019-03-18T06:42:13.221Z,9.6
2019-03-18T06:43:03.062Z,9.7
2019-03-18T06:43:53.338Z,9.8
2019-03-18T06:44:43.121Z,10
2019-03-18T06:45:33.186Z,9.9
2019-03-18T06:46:22.400Z,10
2019-03-18T06:47:13.598Z,10.1
2019-03-18T06:48:11.103Z,10
2019-03-18T06:48:53.987Z,10.1
2019-03-18T06:49:43.753Z,10.3
2019-03-18T06:50:33.834Z,10.3
2019-03-18T06:51:24.185Z,10.6
2019-03-18T06:52:14.235Z,10.6
2019-03-18T06:53:04.050Z,10.8
2019-03-18T06:53:54.351Z,11.1
2019-03-18T06:54:44.408Z,11.2
2019-03-18T06:55:34.181Z,11.1
2019-03-18T06:56:24.547Z,11.3
2019-03-18T06:57:14.045Z,11.4
2019-03-18T06:58:04.653Z,11.4
2019-03-18T06:58:53.615Z,11.2
2019-03-18T06:59:44.232Z,11.3
2019-03-18T07:00:34.267Z,11.2
2019-03-18T07:01:24.332Z,11.1
2019-03-18T07:02:14.383Z,11.4
2019-03-18T07:03:04.464Z,11.4
2019-03-18T10:06:30.710Z,21.8
2019-03-18T10:07:20.948Z,21.3
2019-03-18T10:08:11.232Z,21.3
2019-03-18T10:09:15.575Z,21.4
2019-03-18T10:09:50.352Z,21.6
2019-03-18T10:10:40.959Z,21.5
2019-03-18T10:11:31.037Z,21.9
2019-03-18T10:12:35.454Z,22.5
2019-03-18T10:13:10.870Z,23.5
2019-03-18T10:14:51.494Z,24.1
2019-03-18T10:15:41.047Z,23.8
2019-03-18T10:16:30.834Z,23.8
2019-03-18T10:17:21.439Z,23.9
2019-03-18T10:18:11.496Z,23.7
2019-03-18T10:19:01.019Z,24
2019-03-18T10:19:54.559Z,24.3
2019-03-18T10:20:41.687Z,24.6
2019-03-18T10:21:31.489Z,24.6
2019-03-18T10:22:21.799Z,24.5
2019-03-18T10:23:11.336Z,24.3
2019-03-18T10:24:01.943Z,24.3
2019-03-18T10:24:52.056Z,24.2
2019-03-18T10:25:42.046Z,23.9
2019-03-18T10:26:31.828Z,23.6
2019-03-18T10:27:22.165Z,22.8
2019-03-18T10:28:12.226Z,22.3
2019-03-18T10:29:02.309Z,22
2019-03-18T10:29:52.071Z,21.8
2019-03-18T10:30:41.870Z,22.3
2019-03-18T10:31:32.481Z,22.8
2019-03-18T10:32:21.683Z,23.8
2019-03-18T10:33:12.606Z,23.8
2019-03-18T10:34:02.670Z,23.8
2019-03-18T10:34:52.734Z,24.3
2019-03-18T10:35:42.508Z,24.6
2019-03-18T10:36:32.838Z,24.6
2019-03-18T10:37:22.988Z,24.5
2019-03-18T10:38:12.958Z,24.8
2019-03-18T10:39:03.011Z,24.8
2019-03-18T10:39:53.070Z,25.1
2019-03-18T10:40:42.580Z,25
2019-03-18T10:41:32.923Z,24.6
2019-03-18T10:42:22.724Z,24.9
2019-03-18T10:43:13.342Z,25
2019-03-18T10:44:03.114Z,25.3
2019-03-18T10:44:53.155Z,25.1
2019-03-18T10:45:43.210Z,24.9
2019-03-18T10:46:33.548Z,25.2
2019-03-18T10:47:23.347Z,24.8
2019-03-18T10:48:13.666Z,23.8
2019-03-18T10:49:03.738Z,24.1
2019-03-18T10:49:53.530Z,24.5
2019-03-18T10:50:43.305Z,24.8
2019-03-18T10:51:34.705Z,24.1
2019-03-18T10:52:23.873Z,23.4
2019-03-18T10:53:14.126Z,23.3
2019-03-18T10:54:03.885Z,23.6
2019-03-18T10:54:54.308Z,23.9
2019-03-18T10:55:44.199Z,24.3
2019-03-18T10:56:33.984Z,24.4
2019-03-18T10:57:24.057Z,25.2
2019-03-18T10:58:14.405Z,25.5
2019-03-18T10:59:03.932Z,25.8
2019-03-18T10:59:54.572Z,25.8
2019-03-18T11:00:44.082Z,25.1
2019-03-18T11:01:34.359Z,25.4
2019-03-18T11:02:24.685Z,25.9
2019-03-18T11:03:14.482Z,26.1
2019-03-18T11:04:04.542Z,25.8
2019-03-18T11:04:54.594Z,25.4
2019-03-18T11:05:44.107Z,24.9
2019-03-18T11:06:35.066Z,24.9
2019-03-18T11:07:25.081Z,24.8
2019-03-18T11:08:15.123Z,24.3
2019-03-18T11:09:05.194Z,24.3
2019-03-18T11:09:54.976Z,24.3
2019-03-18T11:10:45.309Z,24.3
2019-03-18T11:11:34.553Z,24.2
2019-03-18T11:12:24.871Z,24.6
2019-03-18T11:13:15.481Z,24.6
2019-03-18T11:14:05.274Z,25.1
2019-03-18T11:14:55.626Z,24.9
2019-03-18T11:15:45.389Z,24.3
2019-03-18T11:16:35.737Z,24.1
2019-03-18T11:17:25.243Z,24.1
2019-03-18T11:18:15.855Z,24.1
2019-03-18T11:19:05.951Z,24.5
2019-03-18T11:20:01.387Z,24.8
2019-03-18T11:20:45.773Z,25.2
2019-03-18T11:21:35.538Z,25.1
2019-03-18T11:22:25.878Z,25.3
2019-03-18T11:23:15.643Z,25.4
2019-03-18T11:24:06.008Z,25.9
2019-03-18T11:24:55.777Z,25.8
2019-03-18T11:25:46.386Z,25.8
2019-03-18T11:26:36.435Z,25.3
2019-03-18T11:27:26.263Z,25.2
2019-03-18T11:28:16.322Z,25.1
2019-03-18T11:29:08.951Z,25.5
2019-03-18T11:29:56.687Z,24.6
2019-03-18T11:30:46.745Z,24.5
2019-03-18T11:31:36.599Z,25.1
2019-03-18T11:32:26.873Z,25.4
2019-03-18T11:33:16.912Z,24.8
2019-03-18T11:34:06.437Z,24.5
2019-03-18T11:34:56.771Z,24.3
2019-03-18T11:35:47.115Z,24.5
2019-03-18T11:36:37.182Z,24.3
2019-03-18T11:37:26.957Z,23.9
2019-03-18T11:38:17.017Z,23.9
2019-03-18T11:39:07.084Z,24
2019-03-18T11:39:57.132Z,23.8
2019-03-18T11:40:47.429Z,23.6
2019-03-18T11:41:40.329Z,23.9
2019-03-18T11:42:27.645Z,24.8
2019-03-18T11:43:17.369Z,25
2019-03-18T11:44:07.449Z,24.3
2019-03-18T11:44:57.766Z,23.7
2019-03-18T11:45:47.307Z,23.8
2019-03-18T11:46:40.224Z,24
2019-03-18T11:47:27.679Z,24
2019-03-18T11:48:18.027Z,23.6
2019-03-18T11:49:07.804Z,23.9
2019-03-18T11:50:11.746Z,24.3
2019-03-18T11:50:48.196Z,24.5
2019-03-18T11:51:37.713Z,24
2019-03-18T11:52:28.064Z,23.7
2019-03-18T11:53:18.136Z,24
2019-03-18T11:54:08.184Z,24.3
2019-03-18T11:54:58.525Z,24.6
2019-03-18T11:55:48.281Z,24.5
2019-03-18T11:56:37.786Z,24.6
2019-03-18T11:57:28.698Z,24.6
2019-03-18T11:58:18.476Z,24.8
2019-03-18T11:59:08.063Z,24.3
2019-03-18T11:59:58.880Z,24.3
2019-03-18T12:00:48.921Z,24
2019-03-18T12:01:38.706Z,24.3
2019-03-18T12:02:30.906Z,24.8
2019-03-18T12:03:18.835Z,24.6
2019-03-18T12:04:08.878Z,24.8
2019-03-18T12:06:30.288Z,24.9
2019-03-18T12:07:20.095Z,24.9
2019-03-18T12:08:10.518Z,24.6
2019-03-18T12:09:00.756Z,25
2019-03-18T12:09:50.812Z,24.8
2019-03-18T12:10:40.863Z,25.3
2019-03-18T12:11:30.938Z,25.3
2019-03-18T12:12:21.031Z,25.8
2019-03-18T12:13:10.785Z,25.3
2019-03-18T12:14:01.112Z,25.2
2019-03-18T12:14:51.254Z,24.9
2019-03-18T12:15:40.974Z,25.1
2019-03-18T12:16:30.482Z,25.3
2019-03-18T12:17:20.817Z,25.4
2019-03-18T12:18:11.169Z,25.1
2019-03-18T12:19:01.197Z,24.6
2019-03-18T12:19:51.269Z,24.4
2019-03-18T12:20:41.420Z,24.4
2019-03-18T12:21:31.100Z,24.5
2019-03-18T12:22:21.434Z,24.6
2019-03-18T12:23:11.502Z,24.6
2019-03-18T12:24:01.577Z,24.6
2019-03-18T12:24:51.369Z,24.6
2019-03-18T12:25:41.422Z,24.5
2019-03-18T12:26:31.461Z,24.9
2019-03-18T12:27:21.791Z,25.6
2019-03-18T12:28:11.594Z,25.2
2019-03-18T12:29:01.967Z,24.9
2019-03-18T12:29:52.261Z,24.8
2019-03-18T12:30:42.054Z,24.5
2019-03-18T12:31:32.399Z,24.6
2019-03-18T12:32:22.169Z,24.8
2019-03-18T12:33:12.537Z,24.9
2019-03-18T12:34:02.316Z,25.2
2019-03-18T12:34:51.806Z,25.4
2019-03-18T12:35:42.409Z,26.3
2019-03-18T12:36:32.483Z,26.3
2019-03-18T12:37:22.265Z,25.6
2019-03-18T12:38:12.881Z,25.1
2019-03-18T12:39:02.669Z,25.6
2019-03-18T12:39:52.733Z,25.8
2019-03-18T12:40:42.769Z,25.6
2019-03-18T12:41:33.156Z,25.4
2019-03-18T12:42:23.191Z,25
2019-03-18T12:43:13.240Z,24.9
2019-03-18T12:44:03.413Z,24.7
2019-03-18T12:44:53.361Z,25.1
2019-03-18T12:45:43.434Z,25.3
2019-03-18T12:46:33.206Z,25.8
2019-03-18T12:47:22.728Z,25.7
2019-03-18T12:48:13.338Z,25.1
2019-03-18T12:49:03.724Z,25.1
2019-03-18T12:49:53.463Z,24.8
2019-03-18T12:50:59.175Z,24.9
2019-03-18T12:51:33.870Z,24.9
2019-03-18T12:52:23.893Z,24.9
2019-03-18T12:53:13.703Z,24.9
2019-03-18T12:54:04.017Z,25.1
2019-03-18T12:54:54.085Z,24.9
2019-03-18T12:55:43.595Z,24.9
2019-03-18T12:56:33.925Z,24.7
2019-03-18T12:57:23.985Z,24.9
2019-03-18T12:58:14.052Z,24.9
2019-03-18T12:59:04.123Z,24.8
2019-03-18T12:59:54.450Z,25.1
2019-03-18T13:00:44.517Z,24.5
2019-03-18T13:01:34.374Z,24.3
2019-03-18T13:02:24.152Z,24.4
2019-03-18T13:03:14.693Z,24.4
2019-03-18T13:04:04.487Z,24.4
2019-03-18T13:04:54.535Z,24.8
2019-03-18T13:05:44.399Z,24.6
2019-03-18T13:06:36.267Z,24.8
2019-03-18T13:07:25.059Z,24.5
2019-03-18T13:08:15.060Z,24.4
2019-03-18T13:09:04.837Z,24.6
2019-03-18T13:09:55.204Z,24.6
2019-03-18T13:10:45.223Z,24.6
2019-03-18T13:11:35.106Z,24.6
2019-03-18T13:12:25.360Z,24.9
2019-03-18T13:13:15.424Z,24.9
2019-03-18T13:14:05.262Z,24.9
2019-03-18T13:14:55.537Z,24.6
2019-03-18T13:15:45.794Z,24.6
2019-03-18T13:16:35.400Z,24.4
2019-03-18T13:17:25.720Z,25
2019-03-18T13:18:15.519Z,25.5
2019-03-18T13:19:05.837Z,25.6
2019-03-18T13:19:55.621Z,25.7
2019-03-18T13:20:45.433Z,25.1
2019-03-18T13:21:35.492Z,25.1
2019-03-18T13:22:25.854Z,25.7
2019-03-18T13:23:15.607Z,25.6
2019-03-18T13:24:05.931Z,25
2019-03-18T13:24:55.709Z,25.2
2019-03-18T13:25:45.774Z,25.5
2019-03-18T13:26:36.138Z,25.6
2019-03-18T13:27:25.911Z,26.1
2019-03-18T13:28:15.971Z,25.9
2019-03-18T13:29:06.588Z,25.3
2019-03-18T13:29:56.636Z,24.8
2019-03-18T13:30:46.152Z,24.3
2019-03-18T13:31:36.759Z,23.9
2019-03-18T13:32:26.821Z,23.9
2019-03-18T13:33:16.871Z,23.7
2019-03-18T13:34:06.389Z,23.7
2019-03-18T13:34:56.738Z,23.7
2019-03-18T13:35:46.821Z,24.2
2019-03-18T13:36:36.573Z,24.4
2019-03-18T13:37:26.920Z,24.5
2019-03-18T13:38:17.250Z,24.3
2019-03-18T13:39:07.313Z,24.2
2019-03-18T13:39:57.100Z,24.2
2019-03-18T13:40:48.393Z,24.3
2019-03-18T13:41:37.224Z,24.8
2019-03-18T13:42:27.542Z,25
2019-03-18T13:43:17.330Z,25
2019-03-18T13:44:07.678Z,24.6
2019-03-18T13:44:57.721Z,24.4
2019-03-18T13:45:58.075Z,24.5
2019-03-18T13:46:37.583Z,24.6
2019-03-18T13:47:27.899Z,24.6
2019-03-18T13:48:17.712Z,24.2
2019-03-18T13:49:07.751Z,24.1
2019-03-18T13:49:57.528Z,24
2019-03-18T13:50:47.869Z,24.2
2019-03-18T13:51:37.647Z,24.1
2019-03-18T13:52:27.718Z,24.2
2019-03-18T13:53:17.492Z,24.1
2019-03-18T13:54:08.120Z,24.1
2019-03-18T13:54:57.957Z,24.3
2019-03-18T13:55:48.509Z,24
2019-03-18T13:56:38.575Z,24.1
2019-03-18T13:57:28.082Z,24.3
2019-03-18T13:58:18.767Z,24.3
2019-03-18T13:59:08.494Z,24.4
2019-03-18T13:59:58.539Z,24.1
2019-03-18T14:00:48.602Z,24.1
2019-03-18T14:01:38.447Z,23.9
2019-03-18T14:02:28.994Z,23.8
2019-03-18T14:03:18.787Z,23.6
2019-03-18T14:04:08.600Z,23.7
2019-03-18T14:04:58.907Z,23.9
2019-03-18T14:07:29.948Z,24.1
2019-03-18T14:08:19.993Z,24.3
2019-03-18T14:09:10.355Z,24.3
2019-03-18T14:10:00.675Z,24.4
2019-03-18T14:10:50.472Z,24.3
2019-03-18T14:11:40.513Z,24.2
2019-03-18T14:12:30.847Z,24.3
2019-03-18T14:13:20.917Z,23.9
2019-03-18T14:14:10.696Z,23.9
2019-03-18T14:15:01.288Z,24
2019-03-18T14:15:50.555Z,24
2019-03-18T14:16:40.618Z,24.1
2019-03-18T14:17:30.378Z,24.1
2019-03-18T14:18:20.528Z,24.1
2019-03-18T14:19:11.086Z,24.3
2019-03-18T14:20:03.611Z,24.5
2019-03-18T14:20:50.642Z,24.2
2019-03-18T14:21:41.040Z,24.2
2019-03-18T14:22:31.583Z,24.3
2019-03-18T14:23:21.637Z,23.9
2019-03-18T14:24:11.694Z,23.9
2019-03-18T14:25:01.533Z,24.1
2019-03-18T14:25:50.799Z,24.2
2019-03-18T14:26:41.904Z,24.1
2019-03-18T14:27:31.672Z,23.9
2019-03-18T14:28:21.461Z,24.3
2019-03-18T14:29:11.810Z,24.3
2019-03-18T14:30:02.313Z,24.3
2019-03-18T14:30:51.935Z,24.2
2019-03-18T14:31:45.457Z,24.2
2019-03-18T14:32:32.046Z,23.9
2019-03-18T14:33:22.207Z,23.8